Impacts METAR Board
IDs:

KCLT - Charlotte/Douglas In, NC, US

Updated at: 0300 UTC 22 Jun 2018
Potential Impact None Slight Moderate High
Time 21/15Z 21/16Z 21/17Z 21/18Z 21/19Z 21/20Z 21/21Z 21/22Z 21/23Z 22/00Z 22/01Z 22/02Z 22/03Z
Temp86 89 88 90 90 90 92 89 88 76 77 77 77
Dewpt69 69 68 68 70 69 68 68 70 73 75 75 74
Altim29.88 29.88 29.87 29.85 29.83 29.81 29.79 29.78 29.79 29.81 29.81 29.83 29.84
VIS10 10 10 10 10 10 10 10 10 10 8 10 10
CIG250 220 130 150 150 150 200 250 220 110 95 90 150
CoverBKNBKNBKNBKNBKNBKNBKNBKNBKNBKNBKNBKNBKN
FltCatVFRVFRVFRVFRVFRVFRVFRVFRVFRVFRVFRVFRVFR
WX------------------TS------
WDir330270230002302502202200250240230
WSpd3 6 5 4 4 7 6 8 5 0 6 8 5
WGst-- -- -- -- -- -- -- -- -- -- -- -- --
Raw hourly METARs
KCLT 211452Z 33003KT 10SM SCT150 BKN250 30/21 A2988 RMK AO2 SLP108 T03000206 51008
KCLT 211552Z 27006KT 10SM FEW050 SCT130 SCT160 BKN220 32/21 A2988 RMK AO2 SLP109 T03170206
KCLT 211652Z 23005KT 10SM FEW050 FEW100 BKN130 BKN250 31/20 A2987 RMK AO2 SLP103 T03110200
KCLT 211752Z VRB04KT 10SM FEW050 FEW100 BKN150 BKN200 32/20 A2985 RMK AO2 SLP098 T03220200 10328 20261 58010
KCLT 211852Z VRB04KT 10SM FEW050 BKN150 BKN200 32/21 A2983 RMK AO2 SLP091 T03220211
KCLT 211952Z 23007KT 10SM FEW045 BKN150 BKN200 32/21 A2981 RMK AO2 SLP085 T03220206
KCLT 212052Z 25006KT 10SM FEW045 SCT150 BKN200 33/20 A2979 RMK AO2 SLP076 T03330200 58022
KCLT 212152Z 22008KT 10SM FEW055 FEW075 SCT110 BKN250 32/20 A2978 RMK AO2 SLP074 VCSH W-NW T03170200
KCLT 212252Z 22005KT 10SM FEW050 SCT060 SCT100 BKN220 31/21 A2979 RMK AO2 RAB40E43 SLP077 P0000 T03110211
KCLT 212352Z 00000KT 10SM TS FEW035CB SCT075 BKN110 24/23 A2981 RMK AO2 PK WND 24032/2325 RAB25E49 TSB35 SLP083 OCNL LTGICCC NE TS NE MOV NE P0027 60027 T02440228 10333 20239 53006
KCLT 220052Z 25006KT 8SM FEW035 SCT075 BKN095 25/24 A2981 RMK AO2 RAB13E51 TSE12 SLP084 TS MOV NE CB DSNT NW AND NE P0002 T02500239
KCLT 220152Z 24008KT 10SM BKN090 BKN160 25/24 A2983 RMK AO2 SLP090 LTG DSNT NE CB DSNT NE T02500239
KCLT 220252Z 23005KT 10SM BKN150 25/23 A2984 RMK AO2 SLP093 60002 T02500233 53010



Page loaded:  03:18 UTC  |   08:18 PM Pacific  |   09:18 PM Mountain  |   10:18 PM Central  |   11:18 PM Eastern

 

ADVISORIES

FORECASTS

FORECASTS

OBSERVATIONS

USER TOOLS

ABOUT US